createdAt,value
2023-02-18T00:03:56.862Z,31.0
2023-02-18T00:09:03.087Z,31.0
2023-02-18T00:14:09.288Z,31.0
2023-02-18T00:19:15.499Z,32.0
2023-02-18T00:24:21.705Z,33.0
2023-02-18T00:29:27.920Z,32.0
2023-02-18T00:34:34.127Z,34.0
2023-02-18T00:39:40.334Z,30.0
2023-02-18T00:44:45.562Z,32.0
2023-02-18T00:49:51.769Z,35.0
2023-02-18T00:54:57.977Z,36.0
2023-02-18T01:00:04.200Z,37.0
2023-02-18T01:05:10.395Z,38.0
2023-02-18T01:10:19.086Z,36.0
2023-02-18T01:15:21.850Z,37.5
2023-02-18T01:20:28.062Z,37.0
2023-02-18T01:25:33.303Z,38.0
2023-02-18T01:30:39.504Z,39.5
2023-02-18T01:35:45.718Z,38.5
2023-02-18T01:40:51.920Z,39.0
2023-02-18T01:45:58.122Z,39.0
2023-02-18T01:51:04.346Z,41.0
2023-02-18T01:56:10.673Z,37.0
2023-02-18T02:01:16.765Z,37.0
2023-02-18T02:06:22.964Z,37.0
2023-02-18T02:11:29.172Z,36.0
2023-02-18T02:16:35.437Z,33.0
2023-02-18T02:21:41.603Z,35.0
2023-02-18T02:26:47.808Z,32.0
2023-02-18T02:31:54.080Z,32.0
2023-02-18T02:37:00.224Z,30.0
2023-02-18T02:42:06.429Z,28.0
2023-02-18T02:47:12.638Z,26.5
2023-02-18T02:52:18.881Z,23.0
2023-02-18T02:57:25.067Z,24.0
2023-02-18T03:02:31.270Z,24.0
2023-02-18T03:07:37.484Z,24.0
2023-02-18T03:12:42.721Z,23.0
2023-02-18T03:17:48.922Z,22.0
2023-02-18T03:22:54.154Z,21.0
2023-02-18T03:28:00.409Z,19.0
2023-02-18T03:33:06.582Z,18.0
2023-02-18T03:38:12.787Z,15.0
2023-02-18T03:43:19.035Z,13.0
2023-02-18T03:48:25.204Z,13.0
2023-02-18T03:53:31.418Z,12.0
2023-02-18T03:58:37.614Z,11.0
2023-02-18T04:03:43.824Z,10.0
2023-02-18T04:08:50.039Z,8.0
2023-02-18T04:13:56.250Z,7.0
2023-02-18T04:19:02.446Z,7.0
2023-02-18T04:24:08.668Z,6.0
2023-02-18T04:29:14.874Z,6.0
2023-02-18T04:34:21.076Z,6.0
2023-02-18T04:39:27.279Z,5.0
2023-02-18T04:44:33.493Z,5.0
2023-02-18T04:49:39.693Z,4.5
2023-02-18T04:54:45.914Z,4.0
2023-02-18T04:59:52.157Z,4.0
2023-02-18T05:04:58.333Z,4.0
2023-02-18T05:10:03.567Z,3.0
2023-02-18T05:15:09.771Z,3.0
2023-02-18T05:20:15.985Z,3.0
2023-02-18T05:25:22.197Z,3.0
2023-02-18T05:30:28.464Z,3.0
2023-02-18T05:35:34.604Z,3.0
2023-02-18T05:40:40.841Z,3.0
2023-02-18T05:45:47.017Z,3.0
2023-02-18T05:50:53.229Z,3.0
2023-02-18T05:55:59.432Z,3.0
2023-02-18T06:01:05.643Z,3.0
2023-02-18T06:06:12.127Z,2.0
2023-02-18T06:11:18.319Z,3.0
2023-02-18T06:16:24.345Z,3.0
2023-02-18T06:21:30.475Z,3.0
2023-02-18T06:26:36.684Z,3.0
2023-02-18T06:31:43.020Z,3.0
2023-02-18T06:36:49.096Z,4.0
2023-02-18T06:41:55.309Z,4.0
2023-02-18T06:47:01.519Z,6.0
2023-02-18T06:52:07.718Z,5.0
2023-02-18T06:57:12.953Z,6.0
2023-02-18T07:02:19.154Z,6.0
2023-02-18T07:07:24.401Z,7.0
2023-02-18T07:12:30.613Z,9.0
2023-02-18T07:17:36.813Z,9.0
2023-02-18T07:22:43.052Z,10.0
2023-02-18T07:27:49.233Z,10.0
2023-02-18T07:32:55.437Z,10.0
2023-02-18T07:38:01.643Z,9.0
2023-02-18T07:43:07.857Z,8.0
2023-02-18T07:48:14.068Z,8.0
2023-02-18T07:53:20.268Z,9.0
2023-02-18T07:58:26.475Z,9.0
2023-02-18T08:03:32.687Z,11.0
2023-02-18T08:08:38.895Z,12.0
2023-02-18T08:13:46.974Z,13.0
2023-02-18T08:18:51.315Z,13.5
2023-02-18T08:23:57.529Z,15.0
2023-02-18T08:29:03.753Z,15.0
2023-02-18T08:34:09.948Z,15.0
2023-02-18T08:44:22.505Z,12.0
2023-02-18T08:49:28.569Z,13.0
2023-02-18T08:54:34.776Z,10.5
2023-02-18T08:59:40.011Z,11.0
2023-02-18T09:04:46.231Z,12.0
2023-02-18T09:09:51.460Z,12.0
2023-02-18T09:14:57.666Z,10.0
2023-02-18T09:20:03.892Z,13.0
2023-02-18T09:25:10.078Z,11.0
2023-02-18T09:30:16.366Z,13.0
2023-02-18T09:35:22.503Z,12.0
2023-02-18T09:40:28.751Z,11.0
2023-02-18T09:45:34.925Z,10.0
2023-02-18T09:50:41.117Z,11.0
2023-02-18T09:55:47.338Z,9.0
2023-02-18T10:00:53.578Z,11.0
2023-02-18T10:05:59.749Z,10.0
2023-02-18T10:11:06.069Z,9.0
2023-02-18T10:16:12.684Z,8.0
2023-02-18T10:21:18.422Z,9.0
2023-02-18T10:26:24.588Z,8.5
2023-02-18T10:31:30.933Z,7.0
2023-02-18T10:36:36.995Z,6.5
2023-02-18T10:41:43.206Z,6.0
2023-02-18T10:46:49.474Z,7.5
2023-02-18T10:51:55.620Z,8.0
2023-02-18T10:57:00.858Z,7.0
2023-02-18T11:02:07.061Z,7.5
2023-02-18T11:07:12.308Z,8.0
2023-02-18T11:12:18.501Z,9.0
2023-02-18T11:17:24.719Z,8.0
2023-02-18T11:22:30.922Z,6.0
2023-02-18T11:27:37.128Z,7.0
2023-02-18T11:32:43.349Z,8.0
2023-02-18T11:37:49.551Z,8.0
2023-02-18T11:42:55.756Z,7.0
2023-02-18T11:48:01.965Z,8.0
2023-02-18T11:53:08.213Z,7.0
2023-02-18T11:58:14.388Z,9.0
2023-02-18T12:03:20.595Z,8.5
2023-02-18T12:08:26.801Z,8.0
2023-02-18T12:13:33.017Z,7.0
2023-02-18T12:18:40.485Z,9.0
2023-02-18T12:23:47.073Z,8.5
2023-02-18T12:28:51.633Z,8.0
2023-02-18T12:33:57.849Z,9.0
2023-02-18T12:39:04.050Z,10.0
2023-02-18T12:44:10.268Z,8.0
2023-02-18T12:49:16.474Z,7.0
2023-02-18T12:54:21.707Z,7.0
2023-02-18T12:59:27.913Z,6.0
2023-02-18T13:04:35.673Z,7.0
2023-02-18T13:09:39.362Z,5.5
2023-02-18T13:14:45.574Z,7.0
2023-02-18T13:19:51.769Z,6.0
2023-02-18T13:24:57.986Z,5.0
2023-02-18T13:30:04.254Z,6.0
2023-02-18T13:35:10.452Z,4.5
2023-02-18T13:40:16.615Z,4.0
2023-02-18T13:45:22.851Z,6.0
2023-02-18T13:50:29.035Z,5.5
2023-02-18T13:55:35.241Z,7.0
2023-02-18T14:00:41.451Z,5.0
2023-02-18T14:05:47.687Z,7.0
2023-02-18T14:10:53.890Z,4.0
2023-02-18T14:16:00.197Z,7.0
2023-02-18T14:21:06.520Z,4.0
2023-02-18T14:26:12.526Z,14.0
2023-02-18T14:31:22.005Z,5.0
2023-02-18T14:36:24.946Z,5.0
2023-02-18T14:41:31.157Z,5.0
2023-02-18T14:46:37.403Z,4.0
2023-02-18T14:51:42.614Z,4.5
2023-02-18T14:56:48.851Z,6.0
2023-02-18T15:01:54.145Z,5.0
2023-02-18T15:07:00.287Z,5.0
2023-02-18T15:12:06.502Z,4.0
2023-02-18T15:17:12.713Z,4.0
2023-02-18T15:22:18.929Z,5.0
2023-02-18T15:27:25.155Z,4.0
2023-02-18T15:32:31.344Z,4.0
2023-02-18T15:37:37.580Z,3.0
2023-02-18T15:42:43.780Z,5.0
2023-02-18T15:47:49.996Z,5.0
2023-02-18T15:52:56.206Z,4.5
2023-02-18T15:58:02.481Z,4.0
2023-02-18T16:03:08.655Z,4.0
2023-02-18T16:08:14.857Z,4.5
2023-02-18T16:13:21.119Z,3.0
2023-02-18T16:18:27.278Z,4.0
2023-02-18T16:23:33.524Z,5.0
2023-02-18T16:28:39.711Z,5.0
2023-02-18T16:33:45.928Z,4.0
2023-02-18T16:38:52.132Z,4.0
2023-02-18T16:43:58.404Z,5.0
2023-02-18T16:49:04.558Z,5.0
2023-02-18T16:54:09.805Z,5.0
2023-02-18T16:59:16.004Z,5.0
2023-02-18T17:04:22.260Z,5.5
2023-02-18T17:09:28.431Z,7.0
2023-02-18T17:14:34.645Z,6.0
2023-02-18T17:19:40.927Z,6.0
2023-02-18T17:24:47.063Z,6.5
2023-02-18T17:29:53.282Z,9.0
2023-02-18T17:34:59.493Z,11.0
2023-02-18T17:40:05.697Z,12.0
2023-02-18T17:45:11.917Z,14.0
2023-02-18T17:50:17.148Z,15.0
2023-02-18T17:55:23.368Z,20.0
2023-02-18T18:00:29.556Z,21.0
2023-02-18T18:05:35.770Z,22.0
2023-02-18T18:10:41.974Z,23.0
2023-02-18T18:15:48.193Z,23.0
2023-02-18T18:20:54.408Z,24.0
2023-02-18T18:26:00.614Z,25.0
2023-02-18T18:31:06.933Z,27.5
2023-02-18T18:36:13.036Z,30.0
2023-02-18T18:41:18.279Z,30.0
2023-02-18T18:46:24.553Z,29.0
2023-02-18T18:51:29.724Z,27.0
2023-02-18T18:56:35.930Z,26.0
2023-02-18T19:01:42.240Z,27.0
2023-02-18T19:06:48.349Z,26.0
2023-02-18T19:11:54.556Z,23.0
2023-02-18T19:17:00.846Z,24.0
2023-02-18T19:22:07.021Z,23.0
2023-02-18T19:27:13.183Z,25.0
2023-02-18T19:32:19.398Z,22.0
2023-02-18T19:37:25.597Z,23.0
2023-02-18T19:42:31.814Z,25.0
2023-02-18T19:47:38.026Z,23.0
2023-02-18T19:52:44.221Z,23.0
2023-02-18T19:57:50.437Z,24.0
2023-02-18T20:02:56.691Z,23.0
2023-02-18T20:08:02.902Z,23.0
2023-02-18T20:13:09.068Z,23.0
2023-02-18T20:18:15.265Z,25.0
2023-02-18T20:23:21.479Z,25.0
2023-02-18T20:28:27.688Z,25.0
2023-02-18T20:33:33.917Z,25.0
2023-02-18T20:38:39.130Z,26.0
2023-02-18T20:43:45.336Z,25.5
2023-02-18T20:48:51.561Z,26.0
2023-02-18T20:53:57.776Z,26.0
2023-02-18T20:59:03.968Z,27.0
2023-02-18T21:04:10.174Z,28.0
2023-02-18T21:09:16.386Z,28.0
2023-02-18T21:14:22.612Z,28.0
2023-02-18T21:19:28.802Z,28.0
2023-02-18T21:24:35.006Z,28.0
2023-02-18T21:29:41.206Z,27.0
2023-02-18T21:34:47.417Z,28.0
2023-02-18T21:39:53.633Z,29.0
2023-02-18T21:44:59.836Z,31.0
2023-02-18T21:50:06.036Z,30.0
2023-02-18T21:55:12.246Z,31.0
2023-02-18T22:00:20.353Z,30.0
2023-02-18T22:05:24.711Z,31.0
2023-02-18T22:10:30.875Z,31.5
2023-02-18T22:15:37.084Z,31.0
2023-02-18T22:20:43.288Z,29.5
2023-02-18T22:25:48.528Z,32.0
2023-02-18T22:30:54.751Z,31.0
2023-02-18T22:35:59.971Z,31.0
2023-02-18T22:41:06.172Z,31.5
2023-02-18T22:46:11.458Z,33.0
2023-02-18T22:51:17.626Z,30.0
2023-02-18T22:56:23.831Z,30.5
2023-02-18T23:01:30.112Z,29.0
2023-02-18T23:06:36.293Z,28.0
2023-02-18T23:11:42.492Z,30.0
2023-02-18T23:16:48.702Z,29.0
2023-02-18T23:21:54.869Z,27.0
2023-02-18T23:27:01.098Z,27.0
2023-02-18T23:32:07.369Z,25.0
2023-02-18T23:37:13.494Z,26.0
2023-02-18T23:42:19.704Z,26.0
2023-02-18T23:47:25.925Z,27.0
2023-02-18T23:52:32.124Z,24.0
2023-02-18T23:57:38.333Z,24.0
